Time;durP1;ratioP1;P1;durP2;ratioP2;P2;SDS_P1;SDS_P2;PMS_P1;PMS_P2;Temp;Humidity;BMP_temperature;BMP_pressure;BME280_temperature;BME280_humidity;BME280_pressure;Samples;Min_cycle;Max_cycle;Signal;HPM_P1;HPM_P2
2021/12/15 00:00:59;;;;;;;56.83;26.23;;;10.00;99.90;;;;;;5033451;28;20300;-75
2021/12/15 00:03:33;;;;;;;65.88;29.10;;;10.00;99.90;;;;;;5033641;28;20210;-74
2021/12/15 00:06:03;;;;;;;61.95;26.38;;;10.10;99.90;;;;;;5034937;28;20197;-74
2021/12/15 00:08:30;;;;;;;59.13;27.70;;;10.10;99.90;;;;;;5034001;28;20638;-74
2021/12/15 00:10:57;;;;;;;60.70;25.00;;;10.10;99.90;;;;;;5032959;28;20303;-74
2021/12/15 00:13:31;;;;;;;51.70;24.85;;;10.10;99.90;;;;;;5033924;28;20292;-74
2021/12/15 00:15:58;;;;;;;55.03;26.45;;;10.10;99.90;;;;;;5034582;28;20288;-73
2021/12/15 00:18:25;;;;;;;58.20;27.80;;;10.10;99.90;;;;;;5034027;28;20238;-74
2021/12/15 00:20:52;;;;;;;59.80;26.98;;;10.20;99.90;;;;;;5032508;28;20263;-74
2021/12/15 00:23:21;;;;;;;67.38;26.70;;;10.20;99.90;;;;;;5033848;28;20636;-74
2021/12/15 00:25:48;;;;;;;56.25;27.15;;;10.10;99.90;;;;;;5033953;28;20277;-74
2021/12/15 00:28:15;;;;;;;53.25;26.67;;;10.10;99.90;;;;;;5033761;28;20207;-75
2021/12/15 00:30:46;;;;;;;63.45;28.15;;;10.20;99.90;;;;;;5033176;28;20589;-74
2021/12/15 00:33:13;;;;;;;66.55;30.00;;;10.20;99.90;;;;;;5031269;28;20631;-74
2021/12/15 00:35:44;;;;;;;61.85;27.70;;;10.20;99.90;;;;;;5029469;28;20241;-73
2021/12/15 00:38:12;;;;;;;66.82;29.02;;;10.20;99.90;;;;;;5035440;28;20199;-73
2021/12/15 00:40:40;;;;;;;69.82;29.10;;;10.20;99.90;;;;;;5033467;28;20221;-74
2021/12/15 00:43:10;;;;;;;58.42;27.35;;;10.20;99.90;;;;;;5033593;28;20210;-75
2021/12/15 00:45:40;;;;;;;64.40;27.80;;;10.20;99.90;;;;;;5033357;28;20629;-74
2021/12/15 00:48:07;;;;;;;82.47;31.77;;;10.20;99.90;;;;;;5033379;28;20204;-74
2021/12/15 00:50:35;;;;;;;77.97;32.20;;;10.20;99.90;;;;;;5032257;28;20282;-74
2021/12/15 00:53:04;;;;;;;77.93;32.40;;;10.20;99.90;;;;;;5033206;28;20754;-74
2021/12/15 00:55:35;;;;;;;68.93;29.77;;;10.20;99.90;;;;;;5033245;28;20197;-74
2021/12/15 00:58:05;;;;;;;93.20;34.13;;;10.20;99.90;;;;;;5033070;28;20292;-74
2021/12/15 01:00:35;;;;;;;89.07;33.95;;;10.20;99.90;;;;;;5032155;28;20266;-75
2021/12/15 01:03:07;;;;;;;79.28;32.55;;;10.20;99.90;;;;;;5026295;28;20283;-74
2021/12/15 01:05:36;;;;;;;98.38;36.85;;;10.20;99.90;;;;;;5032864;28;20259;-74
2021/12/15 01:08:07;;;;;;;94.93;36.20;;;10.10;99.90;;;;;;5032802;28;20280;-74
2021/12/15 01:10:53;;;;;;;94.43;35.25;;;10.10;99.90;;;;;;5031609;28;20315;-74
2021/12/15 01:21:38;;;;;;;97.38;34.03;;;10.20;99.90;;;;;;5031452;28;20224;-74
2021/12/15 01:24:06;;;;;;;77.63;33.47;;;10.20;99.90;;;;;;5032723;28;20287;-75
2021/12/15 01:26:33;;;;;;;100.50;37.60;;;10.30;99.90;;;;;;5032908;28;20613;-74
2021/12/15 01:29:02;;;;;;;114.55;36.65;;;10.30;99.90;;;;;;5032742;28;20291;-74
2021/12/15 01:31:29;;;;;;;107.88;39.63;;;10.20;99.90;;;;;;5025521;28;20225;-74
2021/12/15 01:33:56;;;;;;;96.65;38.70;;;10.30;99.90;;;;;;5032494;28;20617;-74
2021/12/15 01:36:23;;;;;;;92.32;33.20;;;10.40;99.90;;;;;;5032671;28;20371;-74
2021/12/15 01:38:50;;;;;;;134.80;40.83;;;10.40;99.90;;;;;;5032397;28;20196;-74
2021/12/15 01:41:21;;;;;;;119.93;42.83;;;10.40;99.90;;;;;;5031633;28;20749;-74
2021/12/15 01:46:53;;;;;;;146.30;43.20;;;10.30;99.90;;;;;;5029414;28;20227;-74
2021/12/15 01:46:55;;;;;;;139.13;40.95;;;10.30;99.90;;;;;;5029366;28;20203;-74
2021/12/15 01:49:27;;;;;;;147.70;42.00;;;10.30;99.90;;;;;;5029877;28;20204;-74
2021/12/15 01:51:59;;;;;;;147.68;46.30;;;10.20;99.90;;;;;;5032314;28;20307;-74
2021/12/15 01:54:28;;;;;;;145.40;43.60;;;10.30;99.90;;;;;;5029996;28;20211;-74
2021/12/15 01:56:55;;;;;;;132.35;44.33;;;10.30;99.90;;;;;;5031292;28;20202;-74
2021/12/15 01:59:24;;;;;;;146.30;45.97;;;10.20;99.90;;;;;;5032077;28;20202;-74
2021/12/15 02:01:53;;;;;;;161.20;45.13;;;10.30;99.90;;;;;;5032844;28;20764;-74
2021/12/15 02:04:20;;;;;;;154.65;47.13;;;10.30;99.90;;;;;;5036197;28;20615;-74
2021/12/15 02:06:49;;;;;;;149.52;45.85;;;10.30;99.90;;;;;;5036351;28;20289;-73
2021/12/15 02:09:29;;;;;;;176.98;48.53;;;10.30;99.90;;;;;;5034112;28;20726;-73
2021/12/15 02:11:55;;;;;;;149.52;43.97;;;10.40;99.90;;;;;;5034710;28;20222;-73
2021/12/15 02:14:22;;;;;;;151.63;44.03;;;10.40;99.90;;;;;;5034011;28;20203;-74
2021/12/15 02:16:49;;;;;;;157.30;45.58;;;10.40;99.90;;;;;;5035786;28;20295;-73
2021/12/15 02:19:18;;;;;;;137.65;41.72;;;10.40;99.90;;;;;;5036719;28;20424;-74
2021/12/15 02:21:46;;;;;;;143.43;46.13;;;10.30;99.90;;;;;;5035909;28;20314;-73
2021/12/15 02:24:14;;;;;;;117.43;42.03;;;10.40;99.90;;;;;;5035675;28;20617;-73
2021/12/15 02:26:48;;;;;;;137.52;46.65;;;10.40;99.90;;;;;;5035805;28;20620;-74
2021/12/15 02:29:18;;;;;;;160.82;48.90;;;10.40;99.90;;;;;;5034494;28;20232;-73
2021/12/15 02:31:58;;;;;;;128.20;43.10;;;10.40;99.90;;;;;;5027657;28;20222;-74
2021/12/15 02:34:54;;;;;;;177.82;46.15;;;10.40;99.90;;;;;;5035201;28;20252;-74
2021/12/15 02:37:21;;;;;;;135.10;44.35;;;10.30;99.90;;;;;;5033091;28;20204;-73
2021/12/15 02:39:50;;;;;;;168.45;45.85;;;10.40;99.90;;;;;;5035038;28;20263;-73
2021/12/15 02:42:18;;;;;;;129.13;44.25;;;10.40;99.90;;;;;;5035837;28;20205;-74
2021/12/15 02:44:46;;;;;;;122.28;41.20;;;10.30;99.90;;;;;;5029308;28;20552;-74
2021/12/15 02:47:14;;;;;;;135.30;41.92;;;10.40;99.90;;;;;;5035783;28;20206;-74
2021/12/15 02:49:41;;;;;;;117.13;44.05;;;10.40;99.90;;;;;;5035189;28;20228;-73
2021/12/15 02:52:09;;;;;;;138.07;45.00;;;10.40;99.90;;;;;;5035383;28;20320;-74
2021/12/15 02:54:38;;;;;;;148.13;42.40;;;10.40;99.90;;;;;;5035279;28;20289;-74
2021/12/15 02:57:10;;;;;;;140.70;46.75;;;10.40;99.90;;;;;;5028016;28;20205;-73
2021/12/15 02:59:48;;;;;;;144.35;44.30;;;10.40;99.90;;;;;;5034704;28;20231;-73
2021/12/15 03:02:34;;;;;;;132.90;46.88;;;10.40;99.90;;;;;;5034036;28;20625;-74
2021/12/15 03:05:08;;;;;;;138.65;45.42;;;10.40;99.90;;;;;;5035251;28;20275;-74
2021/12/15 03:07:41;;;;;;;136.40;46.33;;;10.40;99.90;;;;;;5033963;28;20256;-73
2021/12/15 03:15:41;;;;;;;141.55;47.75;;;10.40;99.90;;;;;;5027181;28;20572;-73
2021/12/15 03:18:11;;;;;;;111.13;41.80;;;10.40;99.90;;;;;;5032126;28;20216;-74
2021/12/15 03:20:45;;;;;;;121.82;43.97;;;10.40;99.90;;;;;;5033864;28;20219;-74
2021/12/15 03:23:13;;;;;;;129.75;45.17;;;10.40;99.90;;;;;;5033015;28;20208;-74
2021/12/15 03:25:42;;;;;;;138.30;47.50;;;10.40;99.90;;;;;;5026955;28;20249;-74
2021/12/15 03:33:55;;;;;;;135.52;49.00;;;10.40;99.90;;;;;;5026726;28;20331;-74
2021/12/15 03:36:37;;;;;;;150.23;49.78;;;10.40;99.90;;;;;;5034782;28;20224;-74
2021/12/15 03:39:07;;;;;;;120.88;44.47;;;10.50;99.90;;;;;;5034841;28;20221;-74
2021/12/15 03:41:36;;;;;;;124.70;45.72;;;10.50;99.90;;;;;;5033617;28;20225;-74
2021/12/15 03:44:03;;;;;;;120.32;44.55;;;10.50;99.90;;;;;;5034541;28;20207;-74
2021/12/15 03:46:30;;;;;;;126.38;44.63;;;10.50;99.90;;;;;;5034737;28;20211;-74
2021/12/15 03:48:59;;;;;;;127.07;47.63;;;10.50;99.90;;;;;;5034296;28;20296;-74
2021/12/15 03:51:26;;;;;;;136.85;47.92;;;10.50;99.90;;;;;;5033398;28;20311;-74
2021/12/15 03:53:54;;;;;;;112.03;44.28;;;10.50;99.90;;;;;;5033888;28;20321;-74
2021/12/15 03:56:21;;;;;;;149.23;52.10;;;10.60;99.90;;;;;;5031623;28;20208;-74
2021/12/15 03:58:49;;;;;;;124.22;45.20;;;10.60;99.90;;;;;;5034241;28;20698;-75
2021/12/15 04:01:23;;;;;;;139.32;48.65;;;10.60;99.90;;;;;;5033532;28;20647;-74
2021/12/15 04:03:52;;;;;;;114.03;45.65;;;10.60;99.90;;;;;;5033882;28;20284;-74
2021/12/15 04:06:21;;;;;;;113.30;43.88;;;10.60;99.90;;;;;;5033637;28;20312;-74
2021/12/15 04:08:49;;;;;;;114.10;44.70;;;10.60;99.90;;;;;;5033210;28;20255;-75
2021/12/15 04:11:20;;;;;;;125.88;47.40;;;10.60;99.90;;;;;;5034616;28;20696;-73
2021/12/15 04:13:49;;;;;;;127.35;46.30;;;10.60;99.90;;;;;;5034577;28;20214;-74
2021/12/15 04:16:40;;;;;;;113.03;42.88;;;10.60;99.90;;;;;;5033816;28;20655;-74
2021/12/15 04:19:11;;;;;;;125.05;46.78;;;10.60;99.90;;;;;;5029355;28;20204;-73
2021/12/15 04:21:39;;;;;;;94.00;40.65;;;10.60;99.90;;;;;;5033149;28;20251;-73
2021/12/15 04:24:07;;;;;;;113.03;45.00;;;10.60;99.90;;;;;;5032934;28;20621;-75
2021/12/15 04:26:34;;;;;;;99.95;41.47;;;10.60;99.90;;;;;;5033273;28;20292;-74
2021/12/15 04:29:03;;;;;;;106.15;43.90;;;10.50;99.90;;;;;;5033444;28;20200;-73
2021/12/15 04:31:33;;;;;;;86.07;40.22;;;10.60;99.90;;;;;;5024779;28;20226;-73
2021/12/15 04:34:04;;;;;;;104.20;40.85;;;10.50;99.90;;;;;;5033413;28;20287;-74
2021/12/15 04:36:34;;;;;;;85.90;37.67;;;10.70;99.90;;;;;;5032391;28;20208;-74
2021/12/15 04:39:02;;;;;;;94.18;39.05;;;10.70;99.90;;;;;;5033224;28;20283;-74
2021/12/15 04:41:30;;;;;;;85.72;37.85;;;10.70;99.90;;;;;;5032589;28;20228;-74
2021/12/15 04:43:58;;;;;;;87.90;38.30;;;10.80;99.90;;;;;;5033526;28;20248;-74
2021/12/15 04:46:29;;;;;;;87.22;38.70;;;10.80;99.90;;;;;;5033313;28;20647;-74
2021/12/15 04:48:56;;;;;;;88.72;38.13;;;10.70;99.90;;;;;;5033636;28;20641;-74
2021/12/15 04:51:23;;;;;;;68.15;36.72;;;10.80;99.90;;;;;;5032240;28;20228;-73
2021/12/15 04:53:52;;;;;;;81.20;35.88;;;10.80;99.90;;;;;;5033320;28;20301;-74
2021/12/15 04:56:20;;;;;;;69.93;35.45;;;10.80;99.90;;;;;;5033122;28;20202;-73
2021/12/15 04:58:48;;;;;;;68.72;33.80;;;10.80;99.90;;;;;;5033662;28;20213;-74
2021/12/15 05:01:16;;;;;;;69.25;31.58;;;10.90;99.90;;;;;;5032629;28;20256;-74
2021/12/15 05:03:45;;;;;;;67.07;31.33;;;10.90;99.90;;;;;;5033369;28;20288;-73
2021/12/15 05:06:13;;;;;;;60.78;33.78;;;10.80;99.90;;;;;;5033138;28;20200;-73
2021/12/15 05:09:03;;;;;;;71.40;33.30;;;10.80;99.90;;;;;;5027903;28;20216;-73
2021/12/15 05:11:30;;;;;;;70.85;33.38;;;10.80;99.90;;;;;;5031022;28;20260;-73
2021/12/15 05:13:57;;;;;;;64.32;32.45;;;10.80;99.90;;;;;;5033595;28;20660;-73
2021/12/15 05:16:24;;;;;;;65.20;30.85;;;10.80;99.90;;;;;;5033296;28;20294;-73
2021/12/15 05:19:05;;;;;;;68.75;34.65;;;10.80;99.90;;;;;;5033766;28;20335;-73
2021/12/15 05:21:32;;;;;;;67.93;32.22;;;10.80;99.90;;;;;;5032921;28;20718;-73
2021/12/15 05:24:08;;;;;;;59.13;31.42;;;10.80;99.90;;;;;;5033306;28;20191;-73
2021/12/15 05:26:35;;;;;;;74.00;32.53;;;10.80;99.90;;;;;;5033148;28;20629;-74
2021/12/15 05:29:11;;;;;;;54.60;29.35;;;10.80;99.90;;;;;;5033278;28;20189;-74
2021/12/15 05:31:39;;;;;;;72.78;32.95;;;10.80;99.90;;;;;;5033183;28;20320;-74
2021/12/15 05:34:08;;;;;;;62.83;31.10;;;10.80;99.90;;;;;;5033310;28;20201;-74
2021/12/15 05:36:37;;;;;;;49.08;28.20;;;10.90;99.90;;;;;;5036034;28;20196;-74
2021/12/15 05:39:06;;;;;;;62.45;29.80;;;10.90;99.90;;;;;;5037437;28;20308;-73
2021/12/15 05:41:39;;;;;;;62.55;31.60;;;10.90;99.90;;;;;;5036624;28;20220;-74
2021/12/15 05:44:06;;;;;;;53.10;29.85;;;10.90;99.90;;;;;;5037464;28;20282;-74
2021/12/15 05:46:35;;;;;;;52.65;29.67;;;10.90;99.90;;;;;;5037311;28;20287;-74
2021/12/15 05:49:03;;;;;;;52.10;26.92;;;10.90;99.90;;;;;;5037057;28;20615;-74
2021/12/15 05:51:32;;;;;;;53.97;29.45;;;10.90;99.90;;;;;;5036217;28;20320;-75
2021/12/15 05:53:59;;;;;;;51.20;27.33;;;10.90;99.90;;;;;;5039207;28;20227;-75
2021/12/15 05:56:26;;;;;;;58.40;28.90;;;11.00;99.90;;;;;;5039261;28;20291;-71
2021/12/15 05:58:53;;;;;;;61.10;27.65;;;10.80;99.90;;;;;;5040693;28;20208;-76
2021/12/15 06:01:20;;;;;;;47.25;26.50;;;10.80;99.90;;;;;;5030999;28;20687;-74
2021/12/15 06:03:47;;;;;;;51.20;28.33;;;10.90;99.90;;;;;;5030055;28;20255;-74
2021/12/15 06:06:15;;;;;;;57.10;28.15;;;10.90;99.90;;;;;;5020852;28;20210;-74
2021/12/15 06:08:44;;;;;;;57.47;29.92;;;10.80;99.90;;;;;;5022146;28;20289;-77
2021/12/15 06:11:11;;;;;;;53.38;28.25;;;10.80;99.90;;;;;;5032193;28;20222;-75
2021/12/15 06:13:38;;;;;;;52.30;29.77;;;10.90;99.90;;;;;;5035855;28;20288;-74
2021/12/15 06:16:06;;;;;;;52.05;27.35;;;10.90;99.90;;;;;;5035521;28;20208;-76
2021/12/15 06:18:33;;;;;;;54.67;29.13;;;10.80;99.90;;;;;;5024641;28;20259;-73
2021/12/15 06:21:01;;;;;;;58.58;30.33;;;10.80;99.90;;;;;;5034962;28;20307;-75
2021/12/15 06:23:28;;;;;;;60.30;30.38;;;10.80;99.90;;;;;;5035529;28;20284;-74
2021/12/15 06:25:59;;;;;;;56.20;29.80;;;10.80;99.90;;;;;;5026247;28;20200;-73
2021/12/15 06:28:29;;;;;;;53.60;27.88;;;10.80;99.90;;;;;;5026657;28;20252;-74
2021/12/15 06:30:56;;;;;;;66.65;34.60;;;10.80;99.90;;;;;;5019898;28;20224;-75
2021/12/15 06:33:24;;;;;;;63.22;32.22;;;10.80;99.90;;;;;;5027440;28;20217;-73
2021/12/15 06:35:55;;;;;;;55.80;29.20;;;10.70;99.90;;;;;;5035281;28;20251;-73
2021/12/15 06:38:23;;;;;;;54.90;31.63;;;10.70;99.90;;;;;;5035210;28;20214;-74
2021/12/15 06:40:51;;;;;;;57.10;30.17;;;10.70;99.90;;;;;;5034304;28;20309;-73
2021/12/15 06:43:19;;;;;;;54.13;32.17;;;10.70;99.90;;;;;;5034928;28;20227;-73
2021/12/15 06:45:58;;;;;;;56.72;30.60;;;10.70;99.90;;;;;;5034928;28;20287;-74
2021/12/15 06:59:32;;;;;;;53.85;29.50;;;10.70;99.90;;;;;;5034188;28;20200;-72
2021/12/15 07:01:59;;;;;;;61.63;34.20;;;10.70;99.90;;;;;;5034623;28;20303;-72
2021/12/15 07:04:26;;;;;;;60.53;33.47;;;10.70;99.90;;;;;;5030736;28;20214;-73
2021/12/15 07:06:54;;;;;;;71.25;34.83;;;10.70;99.90;;;;;;5034591;28;20748;-73
2021/12/15 07:09:23;;;;;;;70.55;34.72;;;10.70;99.90;;;;;;5034422;28;20579;-74
2021/12/15 07:11:50;;;;;;;58.67;32.45;;;10.70;99.90;;;;;;5030078;28;20222;-73
2021/12/15 07:14:17;;;;;;;61.80;32.55;;;10.70;99.90;;;;;;5034230;28;20216;-73
2021/12/15 07:16:49;;;;;;;63.85;33.75;;;10.70;99.90;;;;;;5034854;28;20206;-74
2021/12/15 07:19:20;;;;;;;60.13;35.63;;;10.70;99.90;;;;;;5026995;28;20253;-73
2021/12/15 07:21:54;;;;;;;64.13;31.15;;;10.60;99.90;;;;;;5033388;28;20255;-73
2021/12/15 07:24:22;;;;;;;61.10;33.65;;;10.60;99.90;;;;;;5027292;28;20208;-72
2021/12/15 07:26:49;;;;;;;64.55;34.75;;;10.60;99.90;;;;;;5031382;28;20204;-73
2021/12/15 07:29:16;;;;;;;74.28;36.63;;;10.70;99.90;;;;;;5030819;28;20228;-73
2021/12/15 07:31:44;;;;;;;62.50;33.15;;;10.60;99.90;;;;;;5032827;28;20593;-72
2021/12/15 07:34:11;;;;;;;54.70;32.17;;;10.70;99.90;;;;;;5034231;28;20308;-73
2021/12/15 07:36:38;;;;;;;64.47;33.72;;;10.70;99.90;;;;;;5027579;28;20263;-74
2021/12/15 07:39:10;;;;;;;60.78;32.20;;;10.70;99.90;;;;;;5033620;28;20202;-74
2021/12/15 07:41:48;;;;;;;75.30;36.80;;;10.70;99.90;;;;;;5030887;28;20217;-74
2021/12/15 07:44:15;;;;;;;66.15;33.25;;;10.70;99.90;;;;;;5025610;28;20202;-74
2021/12/15 07:46:49;;;;;;;74.82;38.00;;;10.80;99.90;;;;;;5033582;28;20289;-72
2021/12/15 07:49:16;;;;;;;72.18;38.15;;;10.70;99.90;;;;;;5023499;28;20208;-72
2021/12/15 07:51:45;;;;;;;67.75;33.90;;;10.70;99.90;;;;;;5031923;28;20310;-72
2021/12/15 07:54:12;;;;;;;62.83;36.60;;;10.70;99.90;;;;;;5021987;28;20202;-74
2021/12/15 07:56:41;;;;;;;71.22;34.33;;;10.80;99.90;;;;;;5026260;28;20210;-72
2021/12/15 07:59:08;;;;;;;69.72;35.30;;;10.90;99.90;;;;;;5030006;28;20237;-74
2021/12/15 08:01:35;;;;;;;68.75;34.55;;;10.80;99.90;;;;;;5029748;28;20383;-70
2021/12/15 08:04:04;;;;;;;68.53;38.75;;;10.90;99.90;;;;;;5033492;28;20211;-73
2021/12/15 08:06:31;;;;;;;63.83;36.22;;;10.90;99.90;;;;;;5033030;28;20309;-72
2021/12/15 08:08:58;;;;;;;65.80;34.58;;;11.00;99.90;;;;;;5030984;28;20700;-74
2021/12/15 08:11:25;;;;;;;68.20;35.50;;;11.00;99.90;;;;;;5031273;28;20310;-73
2021/12/15 08:13:52;;;;;;;61.75;35.85;;;10.90;99.90;;;;;;5032548;28;20667;-74
2021/12/15 08:16:19;;;;;;;63.22;35.95;;;11.00;99.90;;;;;;5032751;28;20213;-72
2021/12/15 08:18:47;;;;;;;56.08;34.65;;;11.10;99.90;;;;;;5025699;28;20195;-73
2021/12/15 08:21:16;;;;;;;67.15;39.25;;;11.10;99.90;;;;;;5030410;28;20695;-73
2021/12/15 08:23:43;;;;;;;70.72;33.65;;;11.10;99.90;;;;;;5029078;28;20368;-73
2021/12/15 08:26:11;;;;;;;60.80;33.55;;;11.10;99.90;;;;;;5032625;28;20297;-73
2021/12/15 08:28:39;;;;;;;68.80;36.60;;;11.10;99.90;;;;;;5021996;28;20634;-73
2021/12/15 08:31:06;;;;;;;77.60;38.88;;;11.00;99.90;;;;;;5031977;28;20225;-74
2021/12/15 08:33:35;;;;;;;81.63;39.85;;;11.00;99.90;;;;;;5032778;28;20214;-73
2021/12/15 08:36:07;;;;;;;69.05;37.17;;;10.90;99.90;;;;;;5032156;28;20612;-73
2021/12/15 08:38:39;;;;;;;76.25;39.50;;;10.90;99.90;;;;;;5028053;28;20334;-73
2021/12/15 08:41:10;;;;;;;78.15;38.67;;;10.90;99.90;;;;;;5023631;28;20248;-73
2021/12/15 08:43:38;;;;;;;84.65;38.17;;;10.90;99.90;;;;;;5024239;28;20205;-72
2021/12/15 08:46:09;;;;;;;73.70;39.70;;;10.90;99.90;;;;;;5027947;28;20284;-73
2021/12/15 08:48:37;;;;;;;74.00;39.20;;;10.90;99.90;;;;;;5024454;28;20207;-73
2021/12/15 08:51:05;;;;;;;77.68;40.70;;;10.90;99.90;;;;;;5029416;28;20891;-74
2021/12/15 08:53:33;;;;;;;82.40;43.17;;;10.90;99.90;;;;;;5032227;28;20261;-74
2021/12/15 08:56:01;;;;;;;75.65;40.83;;;11.00;99.90;;;;;;5025509;28;20206;-72
2021/12/15 08:58:28;;;;;;;73.00;38.65;;;10.90;99.90;;;;;;5028111;28;20313;-73
2021/12/15 09:00:57;;;;;;;73.93;36.90;;;11.00;99.90;;;;;;5024725;28;20311;-74
2021/12/15 09:03:24;;;;;;;77.40;37.85;;;11.00;99.90;;;;;;5029519;28;20199;-73
2021/12/15 09:05:53;;;;;;;77.47;39.17;;;10.90;99.90;;;;;;5032504;28;20592;-73
2021/12/15 09:08:23;;;;;;;77.68;40.63;;;11.00;99.90;;;;;;5032413;28;20607;-73
2021/12/15 09:10:51;;;;;;;70.80;37.92;;;11.00;99.90;;;;;;5031154;28;20310;-73
2021/12/15 09:13:19;;;;;;;83.60;42.33;;;11.00;99.90;;;;;;5032169;28;20848;-73
2021/12/15 09:15:46;;;;;;;87.78;39.83;;;10.90;99.90;;;;;;5032328;28;20201;-73
2021/12/15 09:18:14;;;;;;;81.65;39.60;;;10.90;99.90;;;;;;5030508;28;20198;-73
2021/12/15 09:20:44;;;;;;;87.65;43.63;;;10.90;99.90;;;;;;5031142;28;20249;-73
2021/12/15 09:23:14;;;;;;;87.00;41.45;;;10.90;99.90;;;;;;5032378;28;20196;-73
2021/12/15 09:25:41;;;;;;;87.65;40.47;;;10.90;99.90;;;;;;5031187;28;20288;-74
2021/12/15 09:28:08;;;;;;;86.63;39.35;;;10.90;99.90;;;;;;5032309;28;20276;-74
2021/12/15 09:30:46;;;;;;;88.25;42.75;;;10.90;99.90;;;;;;5031576;28;20307;-74
2021/12/15 09:33:13;;;;;;;75.47;39.35;;;10.90;99.90;;;;;;5032622;28;20220;-73
2021/12/15 09:35:41;;;;;;;80.28;39.65;;;11.00;99.90;;;;;;5032381;28;20199;-74
2021/12/15 09:38:08;;;;;;;81.80;39.10;;;11.00;99.90;;;;;;5031867;28;20255;-73
2021/12/15 09:40:35;;;;;;;77.60;39.88;;;11.00;99.90;;;;;;5026361;28;20625;-73
2021/12/15 09:43:04;;;;;;;87.30;43.65;;;10.90;99.90;;;;;;5031992;28;20228;-73
2021/12/15 09:45:40;;;;;;;77.22;39.63;;;10.90;99.90;;;;;;5032167;28;20314;-73
2021/12/15 10:02:17;;;;;;;70.70;35.72;;;11.00;99.90;;;;;;5030599;28;20749;-74
2021/12/15 10:04:57;;;;;;;72.25;39.47;;;11.00;99.90;;;;;;5024442;28;20208;-73
2021/12/15 10:10:41;;;;;;;75.63;41.63;;;11.10;99.90;;;;;;5031613;28;20691;-75
2021/12/15 10:18:42;;;;;;;74.13;36.70;;;11.10;99.90;;;;;;5030557;28;20244;-73
2021/12/15 10:21:21;;;;;;;67.97;38.80;;;11.10;99.90;;;;;;5025219;28;20644;-74
2021/12/15 10:23:50;;;;;;;69.25;37.10;;;11.10;99.90;;;;;;5026150;28;20701;-74
2021/12/15 10:26:18;;;;;;;67.28;36.00;;;11.10;99.90;;;;;;5035504;28;20229;-74
2021/12/15 10:28:49;;;;;;;68.78;35.75;;;11.10;99.90;;;;;;5035702;28;20196;-74
2021/12/15 10:31:17;;;;;;;62.50;34.38;;;11.10;99.90;;;;;;5034344;28;20238;-75
2021/12/15 10:33:46;;;;;;;55.08;33.08;;;11.10;99.90;;;;;;5035385;28;20214;-75
2021/12/15 10:36:17;;;;;;;66.97;34.35;;;11.20;99.90;;;;;;5034067;28;20277;-75
2021/12/15 10:38:46;;;;;;;65.70;35.28;;;11.20;99.90;;;;;;5023705;28;20299;-75
2021/12/15 10:41:16;;;;;;;79.03;37.78;;;11.20;99.90;;;;;;5034510;28;20249;-72
2021/12/15 10:43:47;;;;;;;57.80;33.15;;;11.20;99.90;;;;;;5035075;28;20207;-74
2021/12/15 10:46:16;;;;;;;59.83;34.83;;;11.20;99.90;;;;;;5035085;28;20207;-74
2021/12/15 10:48:47;;;;;;;62.65;34.35;;;11.20;99.90;;;;;;5027587;28;20200;-74
2021/12/15 10:51:30;;;;;;;63.75;35.50;;;11.30;99.90;;;;;;5029163;28;20306;-74
2021/12/15 10:53:59;;;;;;;62.47;34.25;;;11.30;99.90;;;;;;5034780;28;20612;-73
2021/12/15 10:56:30;;;;;;;52.85;31.95;;;11.30;99.90;;;;;;5034529;28;20204;-74
2021/12/15 10:59:00;;;;;;;66.50;37.30;;;11.20;99.90;;;;;;5034685;28;20284;-73
2021/12/15 11:01:46;;;;;;;58.50;35.47;;;11.40;99.90;;;;;;5034086;28;20249;-73
2021/12/15 11:04:32;;;;;;;59.40;33.17;;;11.30;99.90;;;;;;5031026;28;20208;-73
2021/12/15 11:07:17;;;;;;;55.53;33.30;;;11.30;99.90;;;;;;5027684;28;20304;-73
2021/12/15 11:09:47;;;;;;;60.83;33.03;;;11.30;99.90;;;;;;5026808;28;20248;-73
2021/12/15 11:12:18;;;;;;;56.88;33.40;;;11.30;99.90;;;;;;5031343;28;20619;-72
2021/12/15 11:14:48;;;;;;;57.33;34.38;;;11.40;99.90;;;;;;5032495;28;20245;-74
2021/12/15 11:17:19;;;;;;;50.75;29.90;;;11.40;99.90;;;;;;5034355;28;20202;-74
2021/12/15 11:20:00;;;;;;;57.63;32.30;;;11.50;99.90;;;;;;5033779;28;20289;-74
2021/12/15 11:22:47;;;;;;;60.65;33.60;;;11.40;99.90;;;;;;5033618;28;20205;-74
2021/12/15 11:25:19;;;;;;;61.78;33.63;;;11.50;99.90;;;;;;5030471;28;20202;-74
2021/12/15 11:27:50;;;;;;;60.58;33.38;;;11.40;99.90;;;;;;5034710;28;20198;-74
2021/12/15 11:30:24;;;;;;;52.70;32.60;;;11.40;99.90;;;;;;5033718;28;20222;-74
2021/12/15 11:32:53;;;;;;;51.67;29.67;;;11.50;99.90;;;;;;5034699;28;20237;-73
2021/12/15 11:35:24;;;;;;;54.67;29.92;;;11.40;99.90;;;;;;5034009;28;20294;-74
2021/12/15 11:37:57;;;;;;;56.85;32.05;;;11.50;99.90;;;;;;5034078;28;20299;-74
2021/12/15 11:40:32;;;;;;;58.58;31.80;;;11.50;99.90;;;;;;5028251;28;20238;-75
2021/12/15 11:43:00;;;;;;;63.38;33.00;;;11.50;99.90;;;;;;5031233;28;20312;-75
2021/12/15 11:45:28;;;;;;;60.08;31.73;;;11.50;99.90;;;;;;5034080;28;20229;-75
2021/12/15 11:48:14;;;;;;;61.53;33.42;;;11.50;99.90;;;;;;5033938;28;20289;-74
2021/12/15 11:50:43;;;;;;;53.83;30.23;;;11.50;99.90;;;;;;5032745;28;20318;-75
2021/12/15 11:53:31;;;;;;;49.42;30.05;;;11.50;99.90;;;;;;5034147;28;20266;-74
2021/12/15 11:56:22;;;;;;;57.45;32.10;;;11.40;99.90;;;;;;5032024;28;20722;-74
2021/12/15 11:58:53;;;;;;;56.10;32.67;;;11.40;99.90;;;;;;5031978;28;20314;-74
2021/12/15 12:01:53;;;;;;;44.47;27.13;;;11.30;99.90;;;;;;5030429;28;20221;-75
2021/12/15 12:04:36;;;;;;;53.70;30.42;;;11.30;99.90;;;;;;5031390;28;20688;-74
2021/12/15 12:07:23;;;;;;;51.95;28.77;;;11.40;99.90;;;;;;5032623;28;20297;-74
2021/12/15 12:09:54;;;;;;;56.08;32.17;;;11.50;99.90;;;;;;5033233;28;20352;-74
2021/12/15 12:12:25;;;;;;;54.38;34.53;;;11.50;99.90;;;;;;5033562;28;20653;-73
2021/12/15 12:14:53;;;;;;;64.13;31.35;;;11.50;99.90;;;;;;5033430;28;20225;-75
2021/12/15 12:17:22;;;;;;;57.38;30.95;;;11.60;99.90;;;;;;5033723;28;20211;-74
2021/12/15 12:19:56;;;;;;;61.17;31.65;;;11.50;99.90;;;;;;5030518;28;20662;-74
2021/12/15 12:22:25;;;;;;;53.70;31.05;;;11.40;99.90;;;;;;5022546;28;20199;-74
2021/12/15 12:24:57;;;;;;;53.20;31.63;;;11.40;99.90;;;;;;5033483;28;20286;-74
2021/12/15 12:27:28;;;;;;;50.70;30.30;;;11.40;99.90;;;;;;5033438;28;20214;-73
2021/12/15 12:29:57;;;;;;;63.88;31.95;;;11.30;99.90;;;;;;5032593;28;20289;-75
2021/12/15 12:32:24;;;;;;;53.13;31.13;;;11.30;99.90;;;;;;5030917;28;20204;-74
2021/12/15 12:34:53;;;;;;;52.95;30.40;;;11.30;99.90;;;;;;5033405;28;20218;-75
2021/12/15 12:37:21;;;;;;;49.70;29.13;;;11.30;99.90;;;;;;5033100;28;20291;-73
2021/12/15 12:39:58;;;;;;;57.40;30.75;;;11.30;99.90;;;;;;5032224;28;20322;-74
2021/12/15 12:42:33;;;;;;;58.08;30.88;;;11.30;99.90;;;;;;5024280;28;20233;-72
2021/12/15 12:45:14;;;;;;;55.55;28.38;;;11.40;99.90;;;;;;5032986;28;20252;-74
2021/12/15 12:47:57;;;;;;;51.47;30.15;;;11.40;99.90;;;;;;5034650;28;20203;-74
2021/12/15 13:01:35;;;;;;;45.63;28.77;;;11.60;99.90;;;;;;5027641;28;20245;-74
2021/12/15 13:04:12;;;;;;;43.92;28.98;;;11.60;99.90;;;;;;5033417;28;20198;-75
2021/12/15 13:06:42;;;;;;;46.95;27.35;;;11.60;99.90;;;;;;5033110;28;20211;-74
2021/12/15 13:09:11;;;;;;;50.25;28.08;;;11.60;99.90;;;;;;5032565;28;20261;-74
2021/12/15 13:11:39;;;;;;;45.40;27.40;;;11.60;99.90;;;;;;5032361;28;20619;-72
2021/12/15 13:14:10;;;;;;;46.78;30.27;;;11.60;99.90;;;;;;5021893;28;20573;-74
2021/12/15 13:16:41;;;;;;;45.42;28.65;;;11.70;99.90;;;;;;5032884;28;20571;-73
2021/12/15 13:19:20;;;;;;;48.05;28.42;;;11.80;99.90;;;;;;5033297;28;20637;-75
2021/12/15 13:22:03;;;;;;;44.03;25.65;;;11.80;99.90;;;;;;5056553;28;20333;-75
2021/12/15 13:30:40;;;;;;;45.05;26.65;;;11.70;99.90;;;;;;5032051;28;20351;-75
2021/12/15 13:33:13;;;;;;;49.65;27.90;;;11.60;99.90;;;;;;5034059;28;20226;-73
2021/12/15 13:35:46;;;;;;;43.63;25.60;;;11.60;99.90;;;;;;5036245;28;20256;-74
2021/12/15 13:38:15;;;;;;;46.03;26.52;;;11.60;99.90;;;;;;5036913;28;20208;-74
2021/12/15 13:41:10;;;;;;;47.22;27.33;;;11.60;99.90;;;;;;5038419;28;20229;-74
2021/12/15 13:43:48;;;;;;;37.67;25.20;;;11.60;99.90;;;;;;5041923;28;20225;-74
2021/12/15 13:46:42;;;;;;;39.30;24.33;;;11.70;99.90;;;;;;5027669;28;20238;-74
2021/12/15 13:49:19;;;;;;;43.35;26.50;;;11.70;99.90;;;;;;5024034;28;20212;-72
2021/12/15 13:51:55;;;;;;;41.75;24.08;;;11.60;99.90;;;;;;5036154;28;20246;-73
2021/12/15 13:54:25;;;;;;;42.22;23.58;;;11.60;99.90;;;;;;5034927;28;20230;-73